Time;durP1;ratioP1;P1;durP2;ratioP2;P2;SDS_P1;SDS_P2;PMS_P1;PMS_P2;Temp;Humidity;BMP_temperature;BMP_pressure;BME280_temperature;BME280_humidity;BME280_pressure;Samples;Min_cycle;Max_cycle;Signal;HPM_P1;HPM_P2
2022/06/01 00:08:44;;;;;;;4.82;2.33;;;;;;;14.84;69.98;100387.31;18302357;32;20117;-67
2022/06/01 00:18:48;;;;;;;5.50;2.45;;;;;;;14.27;72.01;100378.72;18302226;32;20429;-67
2022/06/01 00:28:52;;;;;;;5.50;2.72;;;;;;;14.52;71.34;100367.78;18302545;32;20113;-66
2022/06/01 00:38:56;;;;;;;7.97;2.72;;;;;;;13.68;73.78;100368.34;18300794;32;20648;-66
2022/06/01 00:49:02;;;;;;;6.22;2.85;;;;;;;13.50;74.75;100369.50;18308360;32;20427;-66
2022/06/01 00:59:10;;;;;;;6.87;2.58;;;;;;;14.04;73.49;100360.75;18308611;32;20105;-66
2022/06/01 01:09:13;;;;;;;7.30;2.80;;;;;;;14.31;72.89;100368.16;18308120;32;20097;-66
2022/06/01 01:19:26;;;;;;;5.87;3.35;;;;;;;14.44;71.82;100356.56;18309000;32;20130;-67
2022/06/01 01:29:36;;;;;;;5.30;2.53;;;;;;;14.31;72.65;100350.66;18293124;32;20093;-67
2022/06/01 01:39:39;;;;;;;7.85;2.90;;;;;;;14.40;72.56;100352.22;18301906;32;20081;-67
2022/06/01 01:49:43;;;;;;;6.47;2.58;;;;;;;14.29;73.26;100353.31;18307026;32;20497;-67
2022/06/01 01:59:55;;;;;;;7.37;3.15;;;;;;;14.06;74.13;100343.22;18292435;32;20145;-66
2022/06/01 02:20:26;;;;;;;6.53;3.15;;;;;;;14.83;72.15;100335.66;18170655;32;20126;-67
2022/06/01 02:30:33;;;;;;;8.95;3.55;;;;;;;14.35;73.72;100326.06;18234698;32;20093;-67
2022/06/01 02:40:38;;;;;;;7.30;3.33;;;;;;;14.18;75.14;100339.50;18306378;32;20093;-67
2022/06/01 02:50:42;;;;;;;9.05;3.62;;;;;;;14.29;75.65;100329.66;18305735;32;20109;-67
2022/06/01 03:00:46;;;;;;;9.05;4.30;;;;;;;14.35;75.56;100327.84;18305577;32;20394;-67
2022/06/01 03:10:51;;;;;;;8.25;3.55;;;;;;;14.61;75.59;100322.06;18290172;32;20109;-67
2022/06/01 03:20:54;;;;;;;9.25;3.62;;;;;;;15.04;74.64;100312.44;18305693;32;20110;-67
2022/06/01 03:55:47;;;;;;;12.60;4.22;;;;;;;25.04;49.90;100378.38;18738939;31;81766;-68
2022/06/01 04:05:51;;;;;;;6.60;2.97;;;;;;;25.04;49.90;100378.38;18743417;31;20095;-68
2022/06/01 04:15:55;;;;;;;8.18;2.90;;;;;;;23.65;51.96;100391.06;18741411;31;20086;-68
2022/06/01 04:26:03;;;;;;;5.30;2.40;;;;;;;26.50;44.91;100361.72;18741388;31;20115;-68
2022/06/01 04:36:08;;;;;;;7.53;3.15;;;;;;;25.84;45.88;100349.22;18741184;31;20084;-68
2022/06/01 04:46:11;;;;;;;7.60;3.37;;;;;;;26.06;46.06;100351.28;18734980;31;20133;-68
2022/06/01 04:56:15;;;;;;;8.18;3.65;;;;;;;24.50;50.02;100363.00;18428344;32;20097;-69
2022/06/01 05:06:19;;;;;;;7.12;3.15;;;;;;;24.63;49.87;100352.44;18422385;32;20119;-68
2022/06/01 05:16:24;;;;;;;8.98;2.95;;;;;;;24.84;50.21;100350.28;18401603;31;20175;-67
2022/06/01 05:26:28;;;;;;;7.32;2.87;;;;;;;26.86;45.73;100365.44;18385602;32;20145;-67
2022/06/01 05:36:33;;;;;;;7.45;2.83;;;;;;;25.71;48.79;100375.94;18419225;32;20101;-67
2022/06/01 05:46:36;;;;;;;6.60;2.90;;;;;;;25.98;49.52;100388.38;18421344;31;20100;-67
2022/06/01 05:56:41;;;;;;;8.32;3.45;;;;;;;25.63;50.53;100406.69;18420921;32;20169;-67
2022/06/01 06:06:44;;;;;;;9.07;3.50;;;;;;;25.51;50.57;100412.81;18419717;32;20127;-67
2022/06/01 06:16:49;;;;;;;8.40;3.58;;;;;;;27.22;46.55;100408.44;18418245;32;20145;-67
2022/06/01 06:26:52;;;;;;;8.77;3.65;;;;;;;27.89;43.82;100422.38;18420991;32;20121;-68
2022/06/01 06:36:56;;;;;;;8.52;3.33;;;;;;;26.27;48.57;100433.72;18420435;32;20115;-67
2022/06/01 06:47:00;;;;;;;9.32;3.20;;;;;;;27.71;44.78;100441.56;18420215;31;20164;-67
2022/06/01 06:57:05;;;;;;;6.72;3.17;;;;;;;27.40;45.33;100462.50;18474001;31;20454;-67
2022/06/01 07:07:09;;;;;;;8.68;3.47;;;;;;;26.38;48.67;100479.38;18414889;32;20113;-68
2022/06/01 07:17:13;;;;;;;10.60;3.83;;;;;;;27.32;45.73;100457.72;18431124;31;20710;-67
2022/06/01 07:27:17;;;;;;;8.23;3.50;;;;;;;27.53;48.58;100468.72;18363562;32;20479;-67
2022/06/01 07:47:43;;;;;;;8.45;3.65;;;;;;;28.02;46.32;100474.13;18416530;31;20089;-67
2022/06/01 07:58:07;;;;;;;8.18;3.65;;;;;;;29.20;43.61;100488.47;18418149;32;20416;-66
2022/06/01 08:08:11;;;;;;;8.32;2.97;;;;;;;27.90;45.13;100497.34;18408645;32;20113;-67
2022/06/01 08:18:19;;;;;;;8.52;3.10;;;;;;;31.01;38.23;100493.28;18405822;31;20112;-66
2022/06/01 08:28:23;;;;;;;;;;;;;;;27.37;47.51;100500.28;18366063;32;20085;-67
2022/06/01 08:38:28;;;;;;;5.53;2.75;;;;;;;28.01;46.16;100509.97;18362506;32;20324;-66
2022/06/01 08:48:34;;;;;;;7.28;2.45;;;;;;;29.09;43.01;100513.50;18414189;31;20093;-67
2022/06/01 08:58:44;;;;;;;7.28;3.17;;;;;;;30.08;41.68;100504.72;18424601;32;20111;-66
2022/06/01 09:08:51;;;;;;;6.22;2.60;;;;;;;28.51;44.58;100517.03;18424845;32;20140;-67
2022/06/01 09:18:57;;;;;;;5.87;1.90;;;;;;;27.33;47.74;100522.91;18422576;32;20374;-69
2022/06/01 09:29:03;;;;;;;3.05;1.37;;;;;;;32.50;34.18;100511.53;18449252;31;20097;-67
2022/06/01 09:39:18;;;;;;;2.37;1.30;;;;;;;28.80;42.37;100527.34;18432679;31;20090;-66
2022/06/01 09:49:25;;;;;;;2.42;1.20;;;;;;;29.21;40.83;100525.97;18458427;31;20105;-66
2022/06/01 10:09:59;;;;;;;3.28;1.17;;;;;;;28.91;37.74;100527.38;18547465;32;20110;-66
2022/06/01 10:20:17;;;;;;;3.62;1.60;;;;;;;28.23;43.62;100527.16;18453960;32;20555;-66
2022/06/01 10:30:22;;;;;;;2.75;1.10;;;;;;;28.25;37.53;100527.91;18481673;32;20097;-67
2022/06/01 10:40:35;;;;;;;2.92;1.15;;;;;;;28.53;41.84;100524.00;18496728;32;20462;-66
2022/06/01 10:50:43;;;;;;;1.50;1.00;;;;;;;29.38;40.04;100517.53;18516922;32;20099;-66
2022/06/01 11:00:51;;;;;;;3.58;1.35;;;;;;;29.34;36.32;100525.00;18561439;32;20656;-66
2022/06/01 11:11:01;;;;;;;3.33;1.20;;;;;;;29.21;39.88;100523.28;18503739;32;20114;-66
2022/06/01 11:21:13;;;;;;;3.67;1.40;;;;;;;29.19;38.58;100527.06;18494988;32;20072;-65
2022/06/01 11:31:20;;;;;;;2.08;1.12;;;;;;;30.21;34.30;100518.00;18485863;32;20377;-65
2022/06/01 11:41:27;;;;;;;3.67;1.50;;;;;;;30.16;38.33;100517.50;18520951;32;20123;-66
2022/06/01 11:51:47;;;;;;;3.00;1.35;;;;;;;29.85;36.69;100512.84;18525025;32;20120;-66
2022/06/01 12:02:04;;;;;;;2.13;1.30;;;;;;;29.67;35.04;100504.44;18428309;32;20093;-66
2022/06/01 12:12:08;;;;;;;2.12;1.15;;;;;;;29.88;34.30;100501.81;18459634;32;20107;-66
2022/06/01 12:33:08;;;;;;;3.10;1.10;;;;;;;31.62;30.91;100496.09;18474501;32;20088;-67
2022/06/01 12:43:16;;;;;;;2.03;0.88;;;;;;;31.02;31.64;100508.50;18498657;32;20096;-66
2022/06/01 12:53:22;;;;;;;1.30;0.80;;;;;;;31.18;29.82;100499.03;18498135;32;20440;-68
2022/06/01 13:03:29;;;;;;;1.62;0.90;;;;;;;31.94;29.17;100485.06;18498774;32;20110;-67
2022/06/01 13:13:33;;;;;;;2.37;1.10;;;;;;;32.97;27.01;100483.69;18482709;32;20122;-67
2022/06/01 13:23:45;;;;;;;2.05;1.00;;;;;;;32.87;28.70;100480.16;18497302;32;20096;-67
2022/06/01 13:33:49;;;;;;;1.52;0.80;;;;;;;32.72;28.27;100475.19;18423633;32;20119;-67
2022/06/01 13:43:54;;;;;;;1.80;0.85;;;;;;;32.30;27.38;100465.62;18456991;32;20112;-68
2022/06/01 13:53:59;;;;;;;1.45;0.93;;;;;;;32.26;26.48;100461.47;18486148;32;20111;-67
2022/06/01 14:04:20;;;;;;;1.05;0.60;;;;;;;32.25;26.04;100449.84;18453340;32;20119;-68
2022/06/01 14:14:26;;;;;;;1.15;0.90;;;;;;;33.21;23.83;100437.19;18431415;32;20140;-67
2022/06/01 14:28:28;;;;;;;1.85;0.95;;;;;;;32.14;23.61;100436.47;18429483;32;20104;-67
2022/06/01 14:34:54;;;;;;;1.55;0.95;;;;;;;31.33;26.03;100433.00;18458550;32;20120;-67
2022/06/01 14:44:59;;;;;;;1.02;0.90;;;;;;;31.76;25.80;100436.31;18476234;32;20100;-67
2022/06/01 14:55:03;;;;;;;0.82;0.77;;;;;;;32.40;23.11;100430.50;18481685;32;20161;-67
2022/06/01 15:05:10;;;;;;;1.45;0.80;;;;;;;30.74;25.07;100427.37;18488932;32;20084;-67
2022/06/01 15:15:13;;;;;;;1.00;0.80;;;;;;;30.47;25.69;100426.06;18479874;32;20112;-68
2022/06/01 15:25:18;;;;;;;0.65;0.65;;;;;;;30.42;24.51;100414.84;18476468;32;20096;-67
2022/06/01 15:45:45;;;;;;;1.55;0.85;;;;;;;29.58;27.49;100421.81;18488922;32;20101;-68
2022/06/01 15:55:49;;;;;;;2.55;1.35;;;;;;;29.92;25.52;100421.69;18472795;32;20558;-67
2022/06/01 16:05:54;;;;;;;3.22;1.83;;;;;;;30.36;25.40;100418.91;18484502;32;20144;-67
2022/06/01 16:15:57;;;;;;;2.17;0.80;;;;;;;30.11;25.04;100412.09;18476666;32;20484;-68
2022/06/01 16:26:02;;;;;;;0.88;0.75;;;;;;;30.20;24.64;100418.53;18484770;32;20390;-68
2022/06/01 16:36:09;;;;;;;1.00;0.70;;;;;;;29.99;24.27;100420.19;18437353;32;20480;-68
2022/06/01 16:46:15;;;;;;;2.95;0.88;;;;;;;30.31;25.17;100416.63;18462391;32;20118;-67
2022/06/01 16:56:18;;;;;;;1.17;0.68;;;;;;;29.55;28.80;100414.88;18556049;32;20106;-67
2022/06/01 17:06:23;;;;;;;1.48;0.77;;;;;;;29.43;29.69;100422.06;18558972;32;20107;-67
2022/06/01 17:16:26;;;;;;;1.45;0.80;;;;;;;29.53;27.46;100410.59;18556080;32;20126;-68
2022/06/01 17:26:34;;;;;;;1.35;0.80;;;;;;;29.52;27.92;100407.03;18545642;32;20103;-68
2022/06/01 17:36:37;;;;;;;1.02;0.75;;;;;;;29.02;29.77;100412.84;18556086;32;20111;-67
2022/06/01 17:46:42;;;;;;;4.07;1.20;;;;;;;28.65;32.37;100420.16;18557769;32;20084;-67
2022/06/01 17:56:46;;;;;;;1.33;0.80;;;;;;;28.05;35.94;100428.28;18553177;32;20377;-67
2022/06/01 18:06:51;;;;;;;2.50;1.10;;;;;;;26.56;41.65;100423.69;18540301;32;20100;-67
2022/06/01 18:16:55;;;;;;;2.15;1.08;;;;;;;26.33;42.33;100429.81;18519965;32;20119;-67
2022/06/01 18:27:01;;;;;;;3.30;1.25;;;;;;;25.83;42.62;100420.56;18429009;32;20198;-67
2022/06/01 18:37:05;;;;;;;2.05;1.00;;;;;;;24.92;43.49;100427.19;18431959;32;20101;-66
2022/06/01 18:47:11;;;;;;;1.27;1.00;;;;;;;23.58;47.01;100442.12;18430235;32;20194;-67
2022/06/01 18:57:14;;;;;;;1.00;0.93;;;;;;;23.20;48.51;100441.47;18430293;32;20089;-68
2022/06/01 19:07:21;;;;;;;2.85;1.45;;;;;;;22.49;51.53;100456.72;18453762;32;20105;-66
2022/06/01 19:17:25;;;;;;;5.82;1.37;;;;;;;22.00;52.30;100471.50;18462041;32;20097;-67
2022/06/01 19:27:32;;;;;;;2.28;1.55;;;;;;;21.47;54.92;100468.66;18427956;32;20089;-67
2022/06/01 19:48:05;;;;;;;2.27;1.30;;;;;;;20.17;59.36;100484.91;18428233;32;20479;-66
2022/06/01 19:58:09;;;;;;;2.58;1.50;;;;;;;20.57;57.66;100493.00;18427542;32;20393;-68
2022/06/01 20:08:14;;;;;;;3.97;1.60;;;;;;;20.94;56.23;100491.44;18426104;32;20093;-66
2022/06/01 20:18:18;;;;;;;2.33;1.42;;;;;;;19.26;62.04;100475.16;18427491;32;20085;-66
2022/06/01 20:28:22;;;;;;;2.92;1.55;;;;;;;18.84;62.37;100481.03;18435392;32;20100;-66
2022/06/01 20:38:26;;;;;;;3.05;1.62;;;;;;;19.96;58.74;100468.97;18436470;32;20120;-66
2022/06/01 20:48:30;;;;;;;2.28;1.50;;;;;;;18.90;62.43;100464.97;18447001;32;20077;-66
2022/06/01 20:58:34;;;;;;;2.78;1.80;;;;;;;19.67;59.56;100482.41;18485114;32;20111;-66
2022/06/01 21:08:39;;;;;;;2.83;1.65;;;;;;;18.06;65.05;100499.47;18484230;32;20107;-66
2022/06/01 21:18:42;;;;;;;3.42;1.80;;;;;;;18.57;62.79;100504.87;18497536;32;20106;-66
2022/06/01 21:28:47;;;;;;;2.90;1.92;;;;;;;19.02;60.44;100497.19;18497217;32;20093;-66
2022/06/01 21:38:50;;;;;;;2.85;1.50;;;;;;;17.52;65.15;100517.78;18493976;32;20089;-66
2022/06/01 21:48:55;;;;;;;3.53;2.10;;;;;;;17.57;64.39;100513.25;18495740;32;20097;-66
2022/06/01 21:58:58;;;;;;;4.03;2.05;;;;;;;17.37;64.93;100515.63;18495891;32;20182;-65
2022/06/01 22:09:03;;;;;;;6.57;2.55;;;;;;;17.10;65.68;100507.56;18499196;32;20089;-66
2022/06/01 22:19:06;;;;;;;5.30;2.30;;;;;;;17.79;63.09;100512.59;18483744;32;20115;-66
2022/06/01 22:29:11;;;;;;;4.70;2.10;;;;;;;17.19;64.88;100520.50;18498152;32;20092;-66
2022/06/01 22:39:14;;;;;;;3.65;1.90;;;;;;;16.84;65.30;100527.56;18497671;32;20119;-66
2022/06/01 22:49:18;;;;;;;5.10;1.92;;;;;;;15.62;69.28;100525.09;18496191;32;20108;-66
2022/06/01 22:59:22;;;;;;;2.53;1.73;;;;;;;16.25;67.29;100532.50;18496691;32;20436;-66
2022/06/01 23:09:26;;;;;;;4.18;2.10;;;;;;;16.16;66.80;100528.34;18496462;32;20432;-66
2022/06/01 23:19:29;;;;;;;3.92;2.00;;;;;;;16.18;66.29;100526.53;18496021;32;20093;-66
2022/06/01 23:29:35;;;;;;;4.70;2.30;;;;;;;16.12;66.46;100531.06;18495614;32;20150;-66
2022/06/01 23:40:09;;;;;;;4.18;1.98;;;;;;;16.73;64.78;100525.19;18495156;32;20143;-66
2022/06/01 23:50:28;;;;;;;3.35;1.98;;;;;;;15.81;66.34;100517.69;18494211;32;20136;-66
